createdAt,value
2022-10-16T00:01:50.309Z,86342.28
2022-10-16T00:04:17.321Z,86378.91
2022-10-16T00:06:44.409Z,86393.41
2022-10-16T00:09:11.460Z,86341.56
2022-10-16T00:11:40.386Z,86392.00
2022-10-16T00:14:11.667Z,86351.16
2022-10-16T00:16:39.010Z,86380.22
2022-10-16T00:19:06.372Z,86387.16
2022-10-16T00:21:34.652Z,86390.56
2022-10-16T00:24:05.420Z,86400.19
2022-10-16T00:26:35.150Z,86361.50
2022-10-16T00:29:02.200Z,86348.31
2022-10-16T00:31:30.656Z,86390.56
2022-10-16T00:33:57.677Z,86353.72
2022-10-16T00:36:27.095Z,86382.03
2022-10-16T00:38:56.595Z,86380.00
2022-10-16T00:41:26.274Z,86359.16
2022-10-16T00:43:59.147Z,86393.81
2022-10-16T00:46:43.028Z,86396.53
2022-10-16T00:49:11.501Z,86402.66
2022-10-16T00:51:42.283Z,86386.69
2022-10-16T00:54:21.270Z,86400.56
2022-10-16T00:56:49.051Z,86388.81
2022-10-16T00:59:25.825Z,86399.06
2022-10-16T01:01:54.457Z,86385.34
2022-10-16T01:04:22.235Z,86399.19
2022-10-16T01:07:07.817Z,86399.84
2022-10-16T01:09:58.476Z,86401.19
2022-10-16T01:13:02.686Z,86401.22
2022-10-16T01:15:32.581Z,86404.72
2022-10-16T01:18:22.067Z,86380.53
2022-10-16T01:21:05.348Z,86386.06
2022-10-16T01:23:44.079Z,86406.81
2022-10-16T01:26:23.019Z,86417.16
2022-10-16T01:29:08.780Z,86386.03
2022-10-16T01:31:42.072Z,86411.59
2022-10-16T01:34:17.229Z,86422.00
2022-10-16T01:36:51.629Z,86406.03
2022-10-16T01:39:23.001Z,86428.94
2022-10-16T01:42:15.912Z,86430.31
2022-10-16T01:44:44.781Z,86424.13
2022-10-16T01:47:14.335Z,86399.19
2022-10-16T01:49:42.848Z,86416.53
2022-10-16T01:52:18.655Z,86401.94
2022-10-16T01:54:49.344Z,86439.28
2022-10-16T01:57:18.139Z,86401.25
2022-10-16T01:59:53.530Z,86437.22
2022-10-16T02:02:22.104Z,86401.91
2022-10-16T02:04:54.581Z,86421.31
2022-10-16T02:07:21.684Z,86424.06
2022-10-16T02:09:48.703Z,86435.81
2022-10-16T02:12:37.994Z,86432.38
2022-10-16T02:15:05.214Z,86414.41
2022-10-16T02:17:32.235Z,86437.91
2022-10-16T02:20:00.489Z,86422.00
2022-10-16T02:22:40.567Z,86437.84
2022-10-16T02:25:38.619Z,86445.44
2022-10-16T02:28:14.126Z,86421.13
2022-10-16T02:30:46.212Z,86446.66
2022-10-16T02:33:14.860Z,86434.91
2022-10-16T02:35:44.199Z,86453.56
2022-10-16T02:38:12.339Z,86452.84
2022-10-16T02:40:39.960Z,86434.91
2022-10-16T02:43:07.985Z,86440.38
2022-10-16T02:45:35.007Z,86440.41
2022-10-16T02:48:02.014Z,86454.25
2022-10-16T02:50:29.012Z,86443.22
2022-10-16T02:52:56.092Z,86434.84
2022-10-16T02:55:23.107Z,86456.34
2022-10-16T02:57:50.089Z,86424.47
2022-10-16T03:00:18.378Z,86456.94
2022-10-16T03:02:45.733Z,86452.13
2022-10-16T03:05:12.947Z,86459.69
2022-10-16T03:07:40.582Z,86440.28
2022-10-16T03:10:08.158Z,86441.69
2022-10-16T03:12:35.406Z,86453.41
2022-10-16T03:15:02.386Z,86463.75
2022-10-16T03:17:29.552Z,86476.13
2022-10-16T03:19:56.562Z,86462.31
2022-10-16T03:22:23.547Z,86474.16
2022-10-16T03:24:50.536Z,86444.28
2022-10-16T03:27:18.285Z,86435.97
2022-10-16T03:29:45.234Z,86469.88
2022-10-16T03:32:12.116Z,86474.06
2022-10-16T03:34:39.200Z,86398.56
2022-10-16T03:37:06.256Z,86478.88
2022-10-16T03:39:33.164Z,86445.69
2022-10-16T03:42:00.212Z,86473.31
2022-10-16T03:44:27.145Z,86453.22
2022-10-16T03:46:54.181Z,86451.03
2022-10-16T03:49:21.238Z,86481.53
2022-10-16T03:51:48.188Z,86435.88
2022-10-16T03:54:15.198Z,86476.16
2022-10-16T03:56:42.098Z,86442.78
2022-10-16T03:59:09.145Z,86456.50
2022-10-16T04:01:36.153Z,86462.00
2022-10-16T04:04:03.114Z,86455.13
2022-10-16T04:06:30.226Z,86485.59
2022-10-16T04:08:57.518Z,86462.03
2022-10-16T04:11:24.540Z,86468.97
2022-10-16T04:13:51.555Z,86451.00
2022-10-16T04:16:18.645Z,86492.59
2022-10-16T04:18:45.666Z,86473.91
2022-10-16T04:21:12.697Z,86476.69
2022-10-16T04:23:39.668Z,86478.13
2022-10-16T04:26:06.750Z,86485.69
2022-10-16T04:28:33.869Z,86480.78
2022-10-16T04:31:00.900Z,86434.38
2022-10-16T04:33:27.881Z,86462.19
2022-10-16T04:35:59.859Z,86457.28
2022-10-16T04:38:26.949Z,86480.09
2022-10-16T04:40:54.083Z,86468.28
2022-10-16T04:43:22.018Z,86484.25
2022-10-16T04:45:51.652Z,86462.78
2022-10-16T04:48:19.594Z,86449.50
2022-10-16T04:50:48.421Z,86467.50
2022-10-16T04:53:18.785Z,86454.25
2022-10-16T04:55:45.755Z,86472.97
2022-10-16T04:58:12.713Z,86493.69
2022-10-16T05:00:39.832Z,86469.41
2022-10-16T05:03:10.090Z,86478.53
2022-10-16T05:05:37.707Z,86472.31
2022-10-16T05:08:05.191Z,86499.31
2022-10-16T05:10:32.210Z,86454.28
2022-10-16T05:12:59.345Z,86488.88
2022-10-16T05:15:26.446Z,86452.06
2022-10-16T05:17:55.053Z,86472.94
2022-10-16T05:20:23.030Z,86472.09
2022-10-16T05:22:50.220Z,86511.59
2022-10-16T05:25:17.766Z,86511.63
2022-10-16T05:27:44.878Z,86516.47
2022-10-16T05:30:12.566Z,86499.19
2022-10-16T05:32:39.697Z,86524.09
2022-10-16T05:35:10.073Z,86485.31
2022-10-16T05:37:39.547Z,86520.00
2022-10-16T05:40:07.246Z,86510.91
2022-10-16T05:42:34.364Z,86490.91
2022-10-16T05:45:01.833Z,86503.41
2022-10-16T05:47:29.332Z,86513.09
2022-10-16T05:49:57.053Z,86505.47
2022-10-16T05:52:24.334Z,86490.94
2022-10-16T05:54:51.422Z,86488.25
2022-10-16T05:57:18.467Z,86545.75
2022-10-16T05:59:45.510Z,86527.78
2022-10-16T06:02:15.868Z,86521.56
2022-10-16T06:04:42.948Z,86541.03
2022-10-16T06:07:09.968Z,86526.50
2022-10-16T06:09:36.971Z,86534.91
2022-10-16T06:12:04.027Z,86539.72
2022-10-16T06:14:31.129Z,86541.13
2022-10-16T06:16:58.177Z,86549.41
2022-10-16T06:19:25.225Z,86546.66
2022-10-16T06:21:52.169Z,86521.59
2022-10-16T06:24:19.232Z,86546.50
2022-10-16T06:26:46.284Z,86548.66
2022-10-16T06:29:13.288Z,86531.38
2022-10-16T06:31:40.859Z,86545.84
2022-10-16T06:34:11.781Z,86536.88
2022-10-16T06:36:40.303Z,86543.88
2022-10-16T06:39:10.303Z,86541.06
2022-10-16T06:41:37.604Z,86549.22
2022-10-16T06:44:16.268Z,86525.72
2022-10-16T06:46:43.477Z,86571.47
2022-10-16T06:49:10.665Z,86527.91
2022-10-16T06:51:43.244Z,86578.53
2022-10-16T06:54:10.671Z,86569.66
2022-10-16T06:56:37.787Z,86575.88
2022-10-16T06:59:05.778Z,86576.63
2022-10-16T07:01:33.109Z,86578.72
2022-10-16T07:04:01.846Z,86545.59
2022-10-16T07:06:34.420Z,86569.88
2022-10-16T07:09:04.841Z,86561.50
2022-10-16T07:11:31.892Z,86584.50
2022-10-16T07:13:58.926Z,86570.69
2022-10-16T07:16:31.690Z,86585.94
2022-10-16T07:19:01.309Z,86577.72
2022-10-16T07:21:31.867Z,86589.50
2022-10-16T07:24:00.867Z,86584.66
2022-10-16T07:26:29.753Z,86593.72
2022-10-16T07:28:58.118Z,86582.69
2022-10-16T07:31:25.848Z,86573.03
2022-10-16T07:33:52.930Z,86590.38
2022-10-16T07:36:22.220Z,86568.25
2022-10-16T07:38:49.565Z,86587.66
2022-10-16T07:41:18.783Z,86571.09
2022-10-16T07:43:54.311Z,86590.47
2022-10-16T07:46:23.573Z,86591.88
2022-10-16T07:48:50.558Z,86580.13
2022-10-16T07:51:20.422Z,86580.84
2022-10-16T07:53:48.635Z,86587.75
2022-10-16T07:56:16.912Z,86576.66
2022-10-16T07:58:44.504Z,86583.56
2022-10-16T08:01:16.981Z,86571.81
2022-10-16T08:03:48.898Z,86589.06
2022-10-16T08:06:16.662Z,86589.06
2022-10-16T08:08:43.746Z,86595.94
2022-10-16T08:11:11.353Z,86598.69
2022-10-16T08:13:38.732Z,86575.81
2022-10-16T08:16:09.411Z,86587.53
2022-10-16T08:18:38.168Z,86561.25
2022-10-16T08:21:06.693Z,86595.06
2022-10-16T08:23:34.368Z,86574.94
2022-10-16T08:26:07.830Z,86608.13
2022-10-16T08:28:35.995Z,86609.44
2022-10-16T08:31:21.495Z,86590.00
2022-10-16T08:33:48.962Z,86605.81
2022-10-16T08:36:17.322Z,86607.09
2022-10-16T08:38:44.749Z,86602.16
2022-10-16T08:41:14.796Z,86604.81
2022-10-16T08:43:44.693Z,86604.75
2022-10-16T08:46:32.217Z,86614.28
2022-10-16T08:49:01.559Z,86593.53
2022-10-16T08:51:32.594Z,86610.03
2022-10-16T08:54:18.549Z,86583.72
2022-10-16T08:56:47.898Z,86611.31
2022-10-16T08:59:17.292Z,86610.50
2022-10-16T09:01:50.756Z,86571.09
2022-10-16T09:04:50.833Z,86612.41
2022-10-16T09:07:40.234Z,86621.34
2022-10-16T09:10:37.275Z,86622.00
2022-10-16T09:13:26.153Z,86620.47
2022-10-16T09:16:04.972Z,86618.31
2022-10-16T09:18:42.693Z,86595.41
2022-10-16T09:21:24.854Z,86593.97
2022-10-16T09:23:52.627Z,86618.75
2022-10-16T09:28:54.557Z,86599.81
2022-10-16T09:31:23.460Z,86616.91
2022-10-16T09:33:59.411Z,86622.47
2022-10-16T09:36:29.882Z,86598.91
2022-10-16T09:39:08.215Z,86583.63
2022-10-16T09:41:40.706Z,86589.03
2022-10-16T09:44:20.722Z,86616.59
2022-10-16T09:46:47.772Z,86599.94
2022-10-16T09:49:26.613Z,86613.59
2022-10-16T09:52:13.318Z,86611.38
2022-10-16T09:54:51.404Z,86622.97
2022-10-16T09:57:18.466Z,86624.94
2022-10-16T09:59:53.464Z,86620.66
2022-10-16T10:02:40.662Z,86564.72
2022-10-16T10:05:19.391Z,86615.44
2022-10-16T10:07:47.335Z,86588.44
2022-10-16T10:10:35.528Z,86617.31
2022-10-16T10:13:02.701Z,86598.50
2022-10-16T10:15:36.275Z,86492.84
2022-10-16T10:18:04.391Z,86594.66
2022-10-16T10:20:35.472Z,86604.91
2022-10-16T10:23:20.850Z,86584.78
2022-10-16T10:26:05.763Z,86612.28
2022-10-16T10:29:01.257Z,86599.09
2022-10-16T10:31:37.254Z,86605.88
2022-10-16T10:34:19.431Z,86602.94
2022-10-16T10:37:03.581Z,86604.28
2022-10-16T10:39:51.215Z,86610.28
2022-10-16T10:42:45.345Z,86595.78
2022-10-16T10:45:21.543Z,86575.16
2022-10-16T10:48:06.502Z,86613.66
2022-10-16T10:51:01.314Z,86606.69
2022-10-16T10:53:42.237Z,86608.78
2022-10-16T10:56:21.177Z,86609.97
2022-10-16T10:59:06.334Z,86610.75
2022-10-16T11:01:39.387Z,86603.66
2022-10-16T11:04:22.224Z,86598.09
2022-10-16T11:07:12.537Z,86600.88
2022-10-16T11:09:48.053Z,86596.56
2022-10-16T11:12:36.610Z,86575.28
2022-10-16T11:15:14.526Z,86570.59
2022-10-16T11:18:05.742Z,86591.16
2022-10-16T11:20:43.197Z,86591.09
2022-10-16T11:23:26.647Z,86595.28
2022-10-16T11:25:57.913Z,86568.34
2022-10-16T11:28:28.039Z,86583.31
2022-10-16T11:31:06.413Z,86602.84
2022-10-16T11:33:45.288Z,86592.69
2022-10-16T11:36:30.091Z,86598.94
2022-10-16T11:39:28.683Z,86580.75
2022-10-16T11:42:23.780Z,86595.75
2022-10-16T11:45:01.772Z,86599.88
2022-10-16T11:47:59.743Z,86563.88
2022-10-16T11:50:40.907Z,86589.81
2022-10-16T11:53:31.139Z,86584.34
2022-10-16T11:55:58.059Z,86588.50
2022-10-16T11:58:36.721Z,86597.59
2022-10-16T12:01:39.752Z,86597.44
2022-10-16T12:04:13.542Z,86600.28
2022-10-16T12:06:58.799Z,86596.00
2022-10-16T12:09:32.603Z,86604.25
2022-10-16T12:12:00.549Z,86587.03
2022-10-16T12:14:30.512Z,86599.41
2022-10-16T12:17:00.881Z,86576.63
2022-10-16T12:19:30.803Z,86577.63
2022-10-16T12:22:00.697Z,86568.72
2022-10-16T12:24:33.689Z,86596.69
2022-10-16T12:27:01.565Z,86596.78
2022-10-16T12:29:36.249Z,86606.28
2022-10-16T12:32:06.430Z,86603.47
2022-10-16T12:34:45.925Z,86609.66
2022-10-16T12:37:21.715Z,86577.84
2022-10-16T12:39:50.390Z,86590.91
2022-10-16T12:42:29.670Z,86620.25
2022-10-16T12:44:57.182Z,86620.75
2022-10-16T12:47:32.905Z,86624.88
2022-10-16T12:50:04.169Z,86628.22
2022-10-16T12:52:40.321Z,86573.72
2022-10-16T12:55:17.541Z,86620.56
2022-10-16T12:57:59.575Z,86623.81
2022-10-16T13:00:52.085Z,86595.53
2022-10-16T13:04:03.625Z,86634.03
2022-10-16T13:07:03.724Z,86618.56
2022-10-16T13:09:36.437Z,86637.88
2022-10-16T13:12:21.369Z,86637.09
2022-10-16T13:15:03.510Z,86637.81
2022-10-16T13:17:52.241Z,86636.34
2022-10-16T13:20:43.421Z,86636.28
2022-10-16T13:23:43.766Z,86636.19
2022-10-16T13:26:40.859Z,86644.94
2022-10-16T13:29:07.932Z,86638.25
2022-10-16T13:31:35.375Z,86624.88
2022-10-16T13:34:02.635Z,86615.31
2022-10-16T13:36:32.134Z,86606.97
2022-10-16T13:39:13.474Z,86633.22
2022-10-16T13:41:41.285Z,86629.16
2022-10-16T13:44:18.509Z,86609.72
2022-10-16T13:46:45.552Z,86642.78
2022-10-16T13:49:18.004Z,86631.81
2022-10-16T13:51:58.613Z,86651.84
2022-10-16T13:54:27.613Z,86652.63
2022-10-16T13:57:03.005Z,86627.41
2022-10-16T13:59:39.981Z,86645.53
2022-10-16T14:02:31.759Z,86662.88
2022-10-16T14:04:59.742Z,86652.09
2022-10-16T14:07:29.688Z,86665.34
2022-10-16T14:10:01.420Z,86671.34
2022-10-16T14:12:28.575Z,86676.59
2022-10-16T14:14:58.113Z,86656.16
2022-10-16T14:17:34.736Z,86676.44
2022-10-16T14:20:06.666Z,86666.91
2022-10-16T14:22:41.880Z,86679.47
2022-10-16T14:25:20.862Z,86678.34
2022-10-16T14:28:05.882Z,86669.75
2022-10-16T14:30:35.935Z,86661.66
2022-10-16T14:33:04.685Z,86678.28
2022-10-16T14:35:38.192Z,86638.59
2022-10-16T14:38:07.304Z,86687.59
2022-10-16T14:40:38.600Z,86684.19
2022-10-16T14:43:06.806Z,86667.78
2022-10-16T14:45:36.687Z,86669.44
2022-10-16T14:48:17.217Z,86668.78
2022-10-16T14:50:46.862Z,86654.63
2022-10-16T14:53:14.578Z,86662.44
2022-10-16T14:55:42.863Z,86699.19
2022-10-16T14:58:23.940Z,86693.88
2022-10-16T15:00:50.933Z,86688.59
2022-10-16T15:03:18.049Z,86694.31
2022-10-16T15:05:45.079Z,86679.97
2022-10-16T15:08:13.459Z,86690.44
2022-10-16T15:10:44.372Z,86680.97
2022-10-16T15:13:15.051Z,86719.81
2022-10-16T15:15:45.122Z,86721.28
2022-10-16T15:18:12.279Z,86722.13
2022-10-16T15:20:40.415Z,86725.00
2022-10-16T15:23:14.685Z,86730.03
2022-10-16T15:25:47.048Z,86706.78
2022-10-16T15:28:15.669Z,86719.31
2022-10-16T15:30:43.004Z,86731.06
2022-10-16T15:33:21.008Z,86741.63
2022-10-16T15:35:49.607Z,86754.31
2022-10-16T15:38:18.317Z,86755.25
2022-10-16T15:40:45.965Z,86761.84
2022-10-16T15:43:13.028Z,86731.50
2022-10-16T15:45:40.396Z,86760.59
2022-10-16T15:48:07.568Z,86757.81
2022-10-16T15:50:34.608Z,86719.16
2022-10-16T15:53:01.755Z,86762.09
2022-10-16T15:55:28.711Z,86769.84
2022-10-16T15:57:55.679Z,86769.88
2022-10-16T16:00:26.615Z,86747.78
2022-10-16T16:02:55.496Z,86769.28
2022-10-16T16:05:23.906Z,86786.06
2022-10-16T16:07:52.068Z,86748.72
2022-10-16T16:10:22.040Z,86741.22
2022-10-16T16:12:53.904Z,86782.09
2022-10-16T16:15:22.491Z,86789.91
2022-10-16T16:17:50.366Z,86792.75
2022-10-16T16:20:17.636Z,86800.41
2022-10-16T16:22:44.733Z,86803.19
2022-10-16T16:25:11.790Z,86811.56
2022-10-16T16:27:39.804Z,86803.28
2022-10-16T16:30:08.357Z,86794.38
2022-10-16T16:32:36.049Z,86825.56
2022-10-16T16:35:04.950Z,86817.94
2022-10-16T16:37:32.356Z,86828.47
2022-10-16T16:39:59.575Z,86831.25
2022-10-16T16:42:28.104Z,86816.03
2022-10-16T16:44:55.413Z,86836.19
2022-10-16T16:47:22.465Z,86825.81
2022-10-16T16:49:49.414Z,86832.81
2022-10-16T16:52:16.716Z,86820.34
2022-10-16T16:54:44.928Z,86824.53
2022-10-16T16:57:11.921Z,86813.44
2022-10-16T16:59:38.973Z,86846.03
2022-10-16T17:02:05.914Z,86834.28
2022-10-16T17:04:33.021Z,86841.19
2022-10-16T17:06:59.969Z,86806.53
2022-10-16T17:09:27.324Z,86850.91
2022-10-16T17:11:54.277Z,86837.03
2022-10-16T17:14:21.525Z,86810.69
2022-10-16T17:16:49.994Z,86854.34
2022-10-16T17:19:19.740Z,86825.25
2022-10-16T17:21:49.659Z,86854.31
2022-10-16T17:24:16.892Z,86854.97
2022-10-16T17:26:49.165Z,86850.16
2022-10-16T17:29:18.542Z,86866.09
2022-10-16T17:31:46.240Z,86860.56
2022-10-16T17:34:13.561Z,86871.59
2022-10-16T17:36:44.359Z,86873.69
2022-10-16T17:39:13.963Z,86874.34
2022-10-16T17:41:41.169Z,86875.72
2022-10-16T17:44:08.513Z,86878.44
2022-10-16T17:46:40.008Z,86863.16
2022-10-16T17:49:09.730Z,86875.63
2022-10-16T17:51:36.892Z,86848.47
2022-10-16T17:54:03.933Z,86874.06
2022-10-16T17:56:31.629Z,86880.31
2022-10-16T17:59:00.611Z,86879.56
2022-10-16T18:01:30.558Z,86879.59
2022-10-16T18:04:04.883Z,86888.53
2022-10-16T18:06:32.432Z,86891.19
2022-10-16T18:09:00.440Z,86890.53
2022-10-16T18:11:28.349Z,86875.25
2022-10-16T18:13:57.151Z,86892.94
2022-10-16T18:16:24.984Z,86889.63
2022-10-16T18:18:52.074Z,86863.94
2022-10-16T18:21:20.670Z,86870.84
2022-10-16T18:23:51.688Z,86893.03
2022-10-16T18:26:20.061Z,86891.56
2022-10-16T18:28:47.330Z,86893.09
2022-10-16T18:31:16.501Z,86900.59
2022-10-16T18:33:48.697Z,86905.44
2022-10-16T18:36:17.138Z,86895.78
2022-10-16T18:38:44.354Z,86899.84
2022-10-16T18:41:13.593Z,86890.78
2022-10-16T18:43:40.805Z,86894.81
2022-10-16T18:46:12.779Z,86913.44
2022-10-16T18:48:40.751Z,86916.69
2022-10-16T18:51:08.818Z,86915.41
2022-10-16T18:53:36.556Z,86899.47
2022-10-16T18:56:04.288Z,86890.38
2022-10-16T18:58:31.725Z,86894.34
2022-10-16T19:01:07.621Z,86866.59
2022-10-16T19:03:35.437Z,86910.19
2022-10-16T19:06:11.311Z,86906.06
2022-10-16T19:08:39.064Z,86926.31
2022-10-16T19:11:11.904Z,86925.66
2022-10-16T19:13:38.968Z,86886.69
2022-10-16T19:16:26.512Z,86928.34
2022-10-16T19:18:56.493Z,86922.13
2022-10-16T19:21:25.164Z,86924.06
2022-10-16T19:23:53.615Z,86916.25
2022-10-16T19:26:21.119Z,86926.13
2022-10-16T19:28:48.940Z,86908.13
2022-10-16T19:31:19.608Z,86905.25
2022-10-16T19:33:47.083Z,86933.50
2022-10-16T19:36:29.701Z,86926.50
2022-10-16T19:38:59.784Z,86934.06
2022-10-16T19:41:28.461Z,86934.75
2022-10-16T19:43:55.440Z,86940.84
2022-10-16T19:46:24.673Z,86933.25
2022-10-16T19:49:00.782Z,86947.25
2022-10-16T19:51:29.318Z,86947.22
2022-10-16T19:53:59.307Z,86948.44
2022-10-16T19:56:28.516Z,86954.66
2022-10-16T19:58:57.080Z,86963.09
2022-10-16T20:01:25.747Z,86931.00
2022-10-16T20:03:52.787Z,86952.63
2022-10-16T20:06:20.585Z,86958.94
2022-10-16T20:08:49.926Z,86956.31
2022-10-16T20:11:19.744Z,86954.00
2022-10-16T20:13:46.657Z,86893.81
2022-10-16T20:16:14.733Z,86958.00
2022-10-16T20:18:41.967Z,86959.31
2022-10-16T20:21:14.456Z,86940.78
2022-10-16T20:23:41.940Z,86953.34
2022-10-16T20:26:11.655Z,86960.97
2022-10-16T20:28:42.514Z,86930.34
2022-10-16T20:31:13.602Z,86926.19
2022-10-16T20:33:41.560Z,86961.66
2022-10-16T20:36:16.127Z,86957.44
2022-10-16T20:38:44.038Z,86957.34
2022-10-16T20:41:12.118Z,86970.88
2022-10-16T20:43:44.464Z,86963.94
2022-10-16T20:46:13.789Z,86930.75
2022-10-16T20:48:44.667Z,86951.34
2022-10-16T20:51:13.150Z,86954.97
2022-10-16T20:53:40.133Z,86941.84
2022-10-16T20:56:09.032Z,86932.94
2022-10-16T20:58:37.421Z,86961.78
2022-10-16T21:01:09.118Z,86959.75
2022-10-16T21:03:37.408Z,86960.44
2022-10-16T21:06:09.470Z,86966.13
2022-10-16T21:08:42.136Z,86960.00
2022-10-16T21:11:20.105Z,86963.66
2022-10-16T21:13:47.260Z,86951.13
2022-10-16T21:16:15.672Z,86964.38
2022-10-16T21:18:44.745Z,86960.16
2022-10-16T21:21:20.724Z,86926.91
2022-10-16T21:23:49.193Z,86941.78
2022-10-16T21:26:18.359Z,86940.88
2022-10-16T21:28:45.605Z,86948.59
2022-10-16T21:31:22.445Z,86970.09
2022-10-16T21:33:50.701Z,86949.00
2022-10-16T21:36:25.361Z,86970.84
2022-10-16T21:38:53.019Z,86917.84
2022-10-16T21:41:25.622Z,86948.47
2022-10-16T21:43:53.547Z,86968.78
2022-10-16T21:46:23.507Z,86973.31
2022-10-16T21:49:01.835Z,86941.41
2022-10-16T21:51:33.863Z,86975.00
2022-10-16T21:54:06.371Z,86968.13
2022-10-16T21:56:34.142Z,86956.19
2022-10-16T21:59:01.335Z,86946.00
2022-10-16T22:01:29.613Z,86953.88
2022-10-16T22:03:56.688Z,86962.41
2022-10-16T22:06:27.476Z,86968.59
2022-10-16T22:08:57.798Z,86960.25
2022-10-16T22:11:28.478Z,86941.13
2022-10-16T22:13:57.030Z,86941.34
2022-10-16T22:16:26.591Z,86972.09
2022-10-16T22:18:55.714Z,86962.31
2022-10-16T22:21:23.548Z,86959.56
2022-10-16T22:23:50.752Z,86963.56
2022-10-16T22:26:17.795Z,86955.78
2022-10-16T22:28:44.776Z,86945.19
2022-10-16T22:31:13.930Z,86973.19
2022-10-16T22:33:41.781Z,86943.97
2022-10-16T22:36:12.550Z,86970.50
2022-10-16T22:38:39.504Z,86964.34
2022-10-16T22:41:09.641Z,86978.88
2022-10-16T22:43:38.950Z,86977.59
2022-10-16T22:46:09.142Z,86979.69
2022-10-16T22:48:36.822Z,86970.69
2022-10-16T22:51:05.355Z,86974.81
2022-10-16T22:53:32.869Z,86959.50
2022-10-16T22:55:59.775Z,86973.56
2022-10-16T22:58:26.726Z,86974.66
2022-10-16T23:00:53.977Z,86974.84
2022-10-16T23:03:20.971Z,86980.41
2022-10-16T23:05:48.032Z,86942.69
2022-10-16T23:08:15.612Z,86983.09
2022-10-16T23:10:44.376Z,86978.63
2022-10-16T23:13:12.577Z,86978.97
2022-10-16T23:15:40.943Z,86981.59
2022-10-16T23:18:08.872Z,86966.41
2022-10-16T23:20:39.717Z,86979.38
2022-10-16T23:23:07.045Z,86986.81
2022-10-16T23:25:34.362Z,86946.53
2022-10-16T23:28:01.370Z,86953.25
2022-10-16T23:30:28.435Z,86988.06
2022-10-16T23:32:55.499Z,86980.06
2022-10-16T23:35:22.444Z,86974.13
2022-10-16T23:37:49.592Z,86980.53
2022-10-16T23:40:16.623Z,86980.53
2022-10-16T23:42:43.560Z,87000.13
2022-10-16T23:45:10.546Z,86989.69
2022-10-16T23:47:37.699Z,86969.53
2022-10-16T23:50:04.922Z,87002.47
2022-10-16T23:52:31.950Z,87004.94
2022-10-16T23:54:58.793Z,87009.91
2022-10-16T23:57:25.954Z,86996.16
2022-10-16T23:59:53.102Z,86972.50
